sensor_id;sensor_type;location;lat;lon;timestamp;pressure;altitude;pressure_sealevel;temperature;humidity
6615;BME280;3343;42.896;23.912;2023-04-02T00:01:18;72449.34;;;-145.80;43.96
6615;BME280;3343;42.896;23.912;2023-04-02T00:04:16;72479.41;;;-145.80;45.16
6615;BME280;3343;42.896;23.912;2023-04-02T00:09:55;72453.34;;;-145.80;45.05
6615;BME280;3343;42.896;23.912;2023-04-02T00:12:23;72479.41;;;-145.80;45.81
6615;BME280;3343;42.896;23.912;2023-04-02T00:14:52;72519.53;;;-145.80;47.24
6615;BME280;3343;42.896;23.912;2023-04-02T00:17:22;72503.47;;;-145.80;46.45
6615;BME280;3343;42.896;23.912;2023-04-02T00:19:53;72549.59;;;-145.80;48.10
6615;BME280;3343;42.896;23.912;2023-04-02T00:22:26;72519.53;;;-145.80;47.37
6615;BME280;3343;42.896;23.912;2023-04-02T00:24:54;72527.53;;;-145.80;47.95
6615;BME280;3343;42.896;23.912;2023-04-02T00:27:22;72569.66;;;-145.80;48.39
6615;BME280;3343;42.896;23.912;2023-04-02T00:29:50;72611.78;;;-145.80;49.30
6615;BME280;3343;42.896;23.912;2023-04-02T00:32:23;72593.72;;;-145.80;49.52
6615;BME280;3343;42.896;23.912;2023-04-02T00:34:51;72599.75;;;-145.80;49.40
6615;BME280;3343;42.896;23.912;2023-04-02T00:37:19;72545.59;;;-145.80;47.25
6615;BME280;3343;42.896;23.912;2023-04-02T00:39:57;72553.63;;;-145.80;48.46
6615;BME280;3343;42.896;23.912;2023-04-02T00:42:24;72537.56;;;-145.80;47.58
6615;BME280;3343;42.896;23.912;2023-04-02T00:44:52;72503.47;;;-145.80;46.38
6615;BME280;3343;42.896;23.912;2023-04-02T00:47:24;72447.34;;;-145.80;46.41
6615;BME280;3343;42.896;23.912;2023-04-02T00:49:56;72483.44;;;-145.80;47.52
6615;BME280;3343;42.896;23.912;2023-04-02T00:52:26;72573.66;;;-145.80;49.87
6615;BME280;3343;42.896;23.912;2023-04-02T00:54:59;72541.59;;;-145.80;49.18
6615;BME280;3343;42.896;23.912;2023-04-02T00:57:28;72523.53;;;-145.80;47.78
6615;BME280;3343;42.896;23.912;2023-04-02T00:59:57;72573.66;;;-145.80;51.44
6615;BME280;3343;42.896;23.912;2023-04-02T01:02:29;72603.75;;;-145.80;50.23
6615;BME280;3343;42.896;23.912;2023-04-02T01:04:58;72565.66;;;-145.80;50.34
6615;BME280;3343;42.896;23.912;2023-04-02T01:07:54;72537.56;;;-145.80;49.51
6615;BME280;3343;42.896;23.912;2023-04-02T01:13:23;72535.56;;;-145.80;49.85
6615;BME280;3343;42.896;23.912;2023-04-02T01:15:58;72593.72;;;-145.80;50.24
6615;BME280;3343;42.896;23.912;2023-04-02T01:18:42;72607.75;;;-145.80;51.01
6615;BME280;3343;42.896;23.912;2023-04-02T01:21:20;72603.75;;;-145.80;51.91
6615;BME280;3343;42.896;23.912;2023-04-02T01:24:00;72659.91;;;-145.80;52.25
6615;BME280;3343;42.896;23.912;2023-04-02T01:26:39;72687.97;;;-145.80;54.00
6615;BME280;3343;42.896;23.912;2023-04-02T01:29:12;72623.81;;;-145.80;52.13
6615;BME280;3343;42.896;23.912;2023-04-02T01:31:41;72691.97;;;-145.80;53.26
6615;BME280;3343;42.896;23.912;2023-04-02T01:34:12;72671.94;;;-145.80;53.60
6615;BME280;3343;42.896;23.912;2023-04-02T01:36:44;72651.88;;;-145.80;52.30
6615;BME280;3343;42.896;23.912;2023-04-02T01:39:23;72639.84;;;-145.80;52.71
6615;BME280;3343;42.896;23.912;2023-04-02T01:41:57;72603.75;;;-145.80;49.95
6615;BME280;3343;42.896;23.912;2023-04-02T01:44:33;72539.56;;;-145.80;48.61
6615;BME280;3343;42.896;23.912;2023-04-02T01:47:09;72507.50;;;-145.80;48.58
6615;BME280;3343;42.896;23.912;2023-04-02T01:49:38;72513.50;;;-145.80;48.17
6615;BME280;3343;42.896;23.912;2023-04-02T01:52:07;72543.59;;;-145.80;48.20
6615;BME280;3343;42.896;23.912;2023-04-02T01:54:35;72539.56;;;-145.80;48.52
6615;BME280;3343;42.896;23.912;2023-04-02T01:57:03;72505.50;;;-145.80;47.73
6615;BME280;3343;42.896;23.912;2023-04-02T01:59:31;72503.47;;;-145.80;47.82
6615;BME280;3343;42.896;23.912;2023-04-02T02:02:01;72485.44;;;-145.80;47.60
6615;BME280;3343;42.896;23.912;2023-04-02T02:04:30;72491.44;;;-145.80;47.75
6615;BME280;3343;42.896;23.912;2023-04-02T02:06:58;72605.75;;;-145.80;51.44
6615;BME280;3343;42.896;23.912;2023-04-02T02:09:27;72599.75;;;-145.80;50.41
6615;BME280;3343;42.896;23.912;2023-04-02T02:11:56;72633.81;;;-145.80;52.81
6615;BME280;3343;42.896;23.912;2023-04-02T02:14:25;72631.81;;;-145.80;51.07
6615;BME280;3343;42.896;23.912;2023-04-02T02:16:55;72645.84;;;-145.80;51.37
6615;BME280;3343;42.896;23.912;2023-04-02T02:19:27;72641.84;;;-145.80;52.47
6615;BME280;3343;42.896;23.912;2023-04-02T02:21:58;72645.84;;;-145.80;52.54
6615;BME280;3343;42.896;23.912;2023-04-02T02:24:29;72669.91;;;-145.80;52.81
6615;BME280;3343;42.896;23.912;2023-04-02T02:27:05;72681.94;;;-145.80;53.80
6615;BME280;3343;42.896;23.912;2023-04-02T02:29:36;72712.03;;;-145.80;54.25
6615;BME280;3343;42.896;23.912;2023-04-02T02:32:08;72706.00;;;-145.80;55.02
6615;BME280;3343;42.896;23.912;2023-04-02T02:34:39;72718.06;;;-145.80;54.23
6615;BME280;3343;42.896;23.912;2023-04-02T02:37:11;72726.06;;;-145.80;55.97
6615;BME280;3343;42.896;23.912;2023-04-02T02:39:42;72691.97;;;-145.80;54.19
6615;BME280;3343;42.896;23.912;2023-04-02T02:42:13;72653.88;;;-145.80;53.57
6615;BME280;3343;42.896;23.912;2023-04-02T02:44:43;72702.00;;;-145.80;54.97
6615;BME280;3343;42.896;23.912;2023-04-02T02:47:15;72740.09;;;-145.80;55.52
6615;BME280;3343;42.896;23.912;2023-04-02T02:49:45;72736.09;;;-145.80;55.52
6615;BME280;3343;42.896;23.912;2023-04-02T02:52:16;72712.03;;;-145.80;54.67
6615;BME280;3343;42.896;23.912;2023-04-02T02:54:47;72738.09;;;-145.80;53.91
6615;BME280;3343;42.896;23.912;2023-04-02T02:57:18;72742.13;;;-145.80;54.24
6615;BME280;3343;42.896;23.912;2023-04-02T02:59:47;72780.22;;;-145.80;54.47
6615;BME280;3343;42.896;23.912;2023-04-02T03:02:17;72776.22;;;-145.80;56.15
6615;BME280;3343;42.896;23.912;2023-04-02T03:04:46;72806.28;;;-145.80;55.81
6615;BME280;3343;42.896;23.912;2023-04-02T03:07:13;72812.31;;;-145.80;55.87
6615;BME280;3343;42.896;23.912;2023-04-02T03:09:48;72794.25;;;-145.80;56.04
6615;BME280;3343;42.896;23.912;2023-04-02T03:12:35;72804.28;;;-145.80;56.55
6615;BME280;3343;42.896;23.912;2023-04-02T03:15:12;72820.31;;;-145.80;56.47
6615;BME280;3343;42.896;23.912;2023-04-02T03:17:46;72852.41;;;-145.80;57.40
6615;BME280;3343;42.896;23.912;2023-04-02T03:20:17;72842.38;;;-145.80;57.48
6615;BME280;3343;42.896;23.912;2023-04-02T03:22:50;72800.28;;;-145.80;55.83
6615;BME280;3343;42.896;23.912;2023-04-02T03:25:27;72700.00;;;-145.80;53.39
6615;BME280;3343;42.896;23.912;2023-04-02T03:28:00;72677.94;;;-145.80;52.57
6615;BME280;3343;42.896;23.912;2023-04-02T03:30:35;72669.91;;;-145.80;52.76
6615;BME280;3343;42.896;23.912;2023-04-02T03:33:10;72679.94;;;-145.80;52.77
6615;BME280;3343;42.896;23.912;2023-04-02T03:35:42;72685.97;;;-145.80;52.82
6615;BME280;3343;42.896;23.912;2023-04-02T03:38:15;72718.06;;;-145.80;53.46
6615;BME280;3343;42.896;23.912;2023-04-02T03:40:52;72712.03;;;-145.80;53.66
6615;BME280;3343;42.896;23.912;2023-04-02T03:43:23;72738.09;;;-145.80;54.40
6615;BME280;3343;42.896;23.912;2023-04-02T03:45:54;72806.28;;;-145.80;56.29
6615;BME280;3343;42.896;23.912;2023-04-02T03:48:27;72804.28;;;-145.80;56.33
6615;BME280;3343;42.896;23.912;2023-04-02T03:50:59;72774.19;;;-145.80;55.57
6615;BME280;3343;42.896;23.912;2023-04-02T03:53:30;72820.31;;;-145.80;56.41
6615;BME280;3343;42.896;23.912;2023-04-02T03:55:57;72874.47;;;-145.80;57.86
6615;BME280;3343;42.896;23.912;2023-04-02T03:58:29;72904.56;;;-145.80;58.71
6615;BME280;3343;42.896;23.912;2023-04-02T04:01:04;72860.44;;;-145.80;57.97
6615;BME280;3343;42.896;23.912;2023-04-02T04:03:39;72840.38;;;-145.80;57.13
6615;BME280;3343;42.896;23.912;2023-04-02T04:06:10;72840.38;;;-145.80;56.82
6615;BME280;3343;42.896;23.912;2023-04-02T04:08:43;72852.41;;;-145.80;56.85
6615;BME280;3343;42.896;23.912;2023-04-02T04:11:14;72818.31;;;-145.80;56.23
6615;BME280;3343;42.896;23.912;2023-04-02T04:13:44;72878.47;;;-145.80;57.10
6615;BME280;3343;42.896;23.912;2023-04-02T04:16:17;72864.44;;;-145.80;56.86
6615;BME280;3343;42.896;23.912;2023-04-02T04:18:52;72816.31;;;-145.80;55.44
6615;BME280;3343;42.896;23.912;2023-04-02T04:21:28;72864.44;;;-145.80;55.94
6615;BME280;3343;42.896;23.912;2023-04-02T04:24:00;72858.44;;;-145.80;56.18
6615;BME280;3343;42.896;23.912;2023-04-02T04:26:35;72876.47;;;-145.80;56.36
6615;BME280;3343;42.896;23.912;2023-04-02T04:29:13;72890.50;;;-145.80;56.27
6615;BME280;3343;42.896;23.912;2023-04-02T04:31:44;72920.59;;;-145.80;57.23
6615;BME280;3343;42.896;23.912;2023-04-02T04:34:19;72902.53;;;-145.80;56.86
6615;BME280;3343;42.896;23.912;2023-04-02T04:36:50;72896.53;;;-145.80;56.53
6615;BME280;3343;42.896;23.912;2023-04-02T04:39:25;72868.44;;;-145.80;55.53
6615;BME280;3343;42.896;23.912;2023-04-02T04:41:56;72886.50;;;-145.80;56.19
6615;BME280;3343;42.896;23.912;2023-04-02T04:44:30;72862.44;;;-145.80;55.73
6615;BME280;3343;42.896;23.912;2023-04-02T04:47:06;72840.38;;;-145.80;55.25
6615;BME280;3343;42.896;23.912;2023-04-02T04:49:40;72828.34;;;-145.80;54.87
6615;BME280;3343;42.896;23.912;2023-04-02T04:52:13;72836.38;;;-145.80;54.72
6615;BME280;3343;42.896;23.912;2023-04-02T04:54:44;72928.63;;;-145.80;56.88
6615;BME280;3343;42.896;23.912;2023-04-02T04:57:21;73000.81;;;-145.80;58.95
6615;BME280;3343;42.896;23.912;2023-04-02T04:59:55;72970.72;;;-145.80;59.33
6615;BME280;3343;42.896;23.912;2023-04-02T05:02:27;73014.84;;;-145.80;59.98
6615;BME280;3343;42.896;23.912;2023-04-02T05:04:59;72952.69;;;-145.80;59.22
6615;BME280;3343;42.896;23.912;2023-04-02T05:07:29;72800.28;;;-145.80;56.96
6615;BME280;3343;42.896;23.912;2023-04-02T05:10:00;72732.09;;;-145.80;53.88
6615;BME280;3343;42.896;23.912;2023-04-02T05:12:33;72655.88;;;-145.80;52.00
6615;BME280;3343;42.896;23.912;2023-04-02T05:15:07;72551.59;;;-145.80;49.71
6615;BME280;3343;42.896;23.912;2023-04-02T05:17:41;72409.25;;;-145.80;46.61
6615;BME280;3343;42.896;23.912;2023-04-02T05:20:16;72349.09;;;-145.80;44.68
6615;BME280;3343;42.896;23.912;2023-04-02T05:22:48;72262.88;;;-145.80;42.37
6615;BME280;3343;42.896;23.912;2023-04-02T05:25:19;72290.94;;;-145.80;42.84
6615;BME280;3343;42.896;23.912;2023-04-02T05:27:50;72242.81;;;-145.80;42.05
6615;BME280;3343;42.896;23.912;2023-04-02T05:30:40;72258.84;;;-145.80;41.50
6615;BME280;3343;42.896;23.912;2023-04-02T05:33:20;72214.75;;;-145.80;40.76
6615;BME280;3343;42.896;23.912;2023-04-02T05:35:54;72216.75;;;-145.80;41.02
6615;BME280;3343;42.896;23.912;2023-04-02T05:38:25;72194.69;;;-145.80;40.04
6615;BME280;3343;42.896;23.912;2023-04-02T05:40:58;72138.56;;;-145.80;39.64
6615;BME280;3343;42.896;23.912;2023-04-02T05:43:26;72114.50;;;-145.80;38.85
6615;BME280;3343;42.896;23.912;2023-04-02T05:46:00;72054.34;;;-145.80;38.32
6615;BME280;3343;42.896;23.912;2023-04-02T05:48:32;71994.19;;;-145.80;36.26
6615;BME280;3343;42.896;23.912;2023-04-02T05:51:05;72016.25;;;-145.80;37.47
6615;BME280;3343;42.896;23.912;2023-04-02T05:53:34;72032.28;;;-145.80;37.35
6615;BME280;3343;42.896;23.912;2023-04-02T05:56:06;72054.34;;;-145.80;36.86
6615;BME280;3343;42.896;23.912;2023-04-02T05:58:40;72062.38;;;-145.80;36.95
6615;BME280;3343;42.896;23.912;2023-04-02T06:01:15;72056.34;;;-145.80;36.87
6615;BME280;3343;42.896;23.912;2023-04-02T06:03:50;72058.34;;;-145.80;37.53
6615;BME280;3343;42.896;23.912;2023-04-02T06:06:27;71974.16;;;-145.80;36.27
6615;BME280;3343;42.896;23.912;2023-04-02T06:08:59;71992.19;;;-145.80;36.11
6615;BME280;3343;42.896;23.912;2023-04-02T06:11:31;71956.09;;;-145.80;34.90
6615;BME280;3343;42.896;23.912;2023-04-02T06:14:08;71897.97;;;-145.80;34.25
6615;BME280;3343;42.896;23.912;2023-04-02T06:16:36;71910.00;;;-145.80;33.03
6615;BME280;3343;42.896;23.912;2023-04-02T06:19:09;71865.88;;;-145.80;32.92
6615;BME280;3343;42.896;23.912;2023-04-02T06:21:44;71885.94;;;-145.80;32.05
6615;BME280;3343;42.896;23.912;2023-04-02T06:24:13;71827.78;;;-145.80;32.11
6615;BME280;3343;42.896;23.912;2023-04-02T06:26:44;71903.97;;;-145.80;31.36
6615;BME280;3343;42.896;23.912;2023-04-02T06:29:19;71950.09;;;-145.80;32.34
6615;BME280;3343;42.896;23.912;2023-04-02T06:31:52;71940.06;;;-145.80;32.18
6615;BME280;3343;42.896;23.912;2023-04-02T06:34:21;71905.97;;;-145.80;31.45
6615;BME280;3343;42.896;23.912;2023-04-02T06:36:54;71863.88;;;-145.80;30.26
6615;BME280;3343;42.896;23.912;2023-04-02T06:39:23;71924.03;;;-145.80;30.89
6615;BME280;3343;42.896;23.912;2023-04-02T06:41:58;71843.84;;;-145.80;31.35
6615;BME280;3343;42.896;23.912;2023-04-02T06:44:28;71835.81;;;-145.80;31.42
6615;BME280;3343;42.896;23.912;2023-04-02T06:47:00;71775.66;;;-145.80;31.43
6615;BME280;3343;42.896;23.912;2023-04-02T06:49:32;71785.69;;;-145.80;31.86
6615;BME280;3343;42.896;23.912;2023-04-02T06:52:05;71733.56;;;-145.80;30.40
6615;BME280;3343;42.896;23.912;2023-04-02T06:54:37;71767.66;;;-145.80;30.40
6615;BME280;3343;42.896;23.912;2023-04-02T06:57:05;71729.56;;;-145.80;30.32
6615;BME280;3343;42.896;23.912;2023-04-02T06:59:32;71725.53;;;-145.80;30.26
6615;BME280;3343;42.896;23.912;2023-04-02T07:02:00;71713.53;;;-145.80;30.54
6615;BME280;3343;42.896;23.912;2023-04-02T07:04:29;71709.50;;;-145.80;30.03
6615;BME280;3343;42.896;23.912;2023-04-02T07:06:56;71711.50;;;-145.80;31.56
6615;BME280;3343;42.896;23.912;2023-04-02T07:09:24;71699.47;;;-145.80;29.63
6615;BME280;3343;42.896;23.912;2023-04-02T07:11:51;71745.59;;;-145.80;29.56
6615;BME280;3343;42.896;23.912;2023-04-02T07:14:18;71699.47;;;-145.80;31.07
6615;BME280;3343;42.896;23.912;2023-04-02T07:16:45;71653.38;;;-145.80;29.63
6615;BME280;3343;42.896;23.912;2023-04-02T07:19:16;71593.25;;;-145.80;30.31
6615;BME280;3343;42.896;23.912;2023-04-02T07:21:45;71501.03;;;-145.80;29.27
6615;BME280;3343;42.896;23.912;2023-04-02T07:24:12;71541.13;;;-145.80;29.54
6615;BME280;3343;42.896;23.912;2023-04-02T07:26:40;71515.06;;;-145.80;29.74
6615;BME280;3343;42.896;23.912;2023-04-02T07:29:08;71507.03;;;-145.80;29.60
6615;BME280;3343;42.896;23.912;2023-04-02T07:31:37;71480.97;;;-145.80;28.56
6615;BME280;3343;42.896;23.912;2023-04-02T07:34:06;71517.06;;;-145.80;29.17
6615;BME280;3343;42.896;23.912;2023-04-02T07:36:33;71525.06;;;-145.80;27.79
6615;BME280;3343;42.896;23.912;2023-04-02T07:38:59;71501.03;;;-145.80;29.26
6615;BME280;3343;42.896;23.912;2023-04-02T07:41:26;71485.00;;;-145.80;27.66
6615;BME280;3343;42.896;23.912;2023-04-02T07:43:55;71436.88;;;-145.80;27.76
6615;BME280;3343;42.896;23.912;2023-04-02T07:46:22;71450.91;;;-145.80;27.47
6615;BME280;3343;42.896;23.912;2023-04-02T07:48:50;71549.13;;;-145.80;28.04
6615;BME280;3343;42.896;23.912;2023-04-02T07:51:18;71561.16;;;-145.80;27.39
6615;BME280;3343;42.896;23.912;2023-04-02T07:53:45;71595.25;;;-145.80;27.72
6615;BME280;3343;42.896;23.912;2023-04-02T07:56:16;71581.22;;;-145.80;28.33
6615;BME280;3343;42.896;23.912;2023-04-02T07:58:43;71541.13;;;-145.80;27.34
6615;BME280;3343;42.896;23.912;2023-04-02T08:01:17;71489.00;;;-145.80;27.13
6615;BME280;3343;42.896;23.912;2023-04-02T08:03:45;71511.03;;;-145.80;27.12
6615;BME280;3343;42.896;23.912;2023-04-02T08:06:12;71476.97;;;-145.80;26.58
6615;BME280;3343;42.896;23.912;2023-04-02T08:08:39;71491.00;;;-145.80;26.50
6615;BME280;3343;42.896;23.912;2023-04-02T08:11:07;71529.09;;;-145.80;26.97
6615;BME280;3343;42.896;23.912;2023-04-02T08:13:34;71601.25;;;-145.80;27.15
6615;BME280;3343;42.896;23.912;2023-04-02T08:16:02;71575.19;;;-145.80;27.53
6615;BME280;3343;42.896;23.912;2023-04-02T08:18:31;71541.13;;;-145.80;28.41
6615;BME280;3343;42.896;23.912;2023-04-02T08:20:58;71747.59;;;-145.80;27.27
6615;BME280;3343;42.896;23.912;2023-04-02T08:23:26;71697.47;;;-145.80;28.58
6615;BME280;3343;42.896;23.912;2023-04-02T08:25:54;71637.34;;;-145.80;27.97
6615;BME280;3343;42.896;23.912;2023-04-02T08:28:21;71587.22;;;-145.80;26.72
6615;BME280;3343;42.896;23.912;2023-04-02T08:30:49;71509.03;;;-145.80;28.67
6615;BME280;3343;42.896;23.912;2023-04-02T08:33:17;71511.03;;;-145.80;26.83
6615;BME280;3343;42.896;23.912;2023-04-02T08:35:46;71575.19;;;-145.80;26.53
6615;BME280;3343;42.896;23.912;2023-04-02T08:38:14;71565.16;;;-145.80;26.96
6615;BME280;3343;42.896;23.912;2023-04-02T08:40:43;71575.19;;;-145.80;27.93
6615;BME280;3343;42.896;23.912;2023-04-02T08:43:27;71545.13;;;-145.80;27.37
6615;BME280;3343;42.896;23.912;2023-04-02T08:46:03;71517.06;;;-145.80;27.49
6615;BME280;3343;42.896;23.912;2023-04-02T08:48:33;71482.97;;;-145.80;26.76
6615;BME280;3343;42.896;23.912;2023-04-02T08:51:04;71468.94;;;-145.80;25.78
6615;BME280;3343;42.896;23.912;2023-04-02T08:53:34;71525.06;;;-145.80;28.05
6615;BME280;3343;42.896;23.912;2023-04-02T08:56:07;71529.09;;;-145.80;27.34
6615;BME280;3343;42.896;23.912;2023-04-02T08:58:43;71535.09;;;-145.80;27.29
6615;BME280;3343;42.896;23.912;2023-04-02T09:01:20;71533.09;;;-145.80;26.61
6615;BME280;3343;42.896;23.912;2023-04-02T09:03:53;71537.09;;;-145.80;26.82
6615;BME280;3343;42.896;23.912;2023-04-02T09:06:23;71485.00;;;-145.80;25.88
6615;BME280;3343;42.896;23.912;2023-04-02T09:08:54;71472.97;;;-145.80;26.91
6615;BME280;3343;42.896;23.912;2023-04-02T09:11:24;71468.94;;;-145.80;26.67
6615;BME280;3343;42.896;23.912;2023-04-02T09:13:55;71466.94;;;-145.80;26.50
6615;BME280;3343;42.896;23.912;2023-04-02T09:16:33;71489.00;;;-145.80;26.97
6615;BME280;3343;42.896;23.912;2023-04-02T09:19:14;71509.03;;;-145.80;26.87
6615;BME280;3343;42.896;23.912;2023-04-02T09:21:45;71533.09;;;-145.80;26.92
6615;BME280;3343;42.896;23.912;2023-04-02T09:24:13;71505.03;;;-145.80;26.30
6615;BME280;3343;42.896;23.912;2023-04-02T09:26:40;71434.88;;;-145.80;26.20
6615;BME280;3343;42.896;23.912;2023-04-02T09:29:30;71434.88;;;-145.80;26.28
6615;BME280;3343;42.896;23.912;2023-04-02T09:34:48;71535.09;;;-145.80;26.53
6615;BME280;3343;42.896;23.912;2023-04-02T09:37:18;71476.97;;;-145.80;26.39
6615;BME280;3343;42.896;23.912;2023-04-02T09:39:47;71444.91;;;-145.80;25.33
6615;BME280;3343;42.896;23.912;2023-04-02T09:42:31;71450.91;;;-145.80;26.17
6615;BME280;3343;42.896;23.912;2023-04-02T09:45:13;71497.00;;;-145.80;26.89
6615;BME280;3343;42.896;23.912;2023-04-02T09:47:40;71527.09;;;-145.80;26.79
6615;BME280;3343;42.896;23.912;2023-04-02T09:50:30;71458.94;;;-145.80;26.52
6615;BME280;3343;42.896;23.912;2023-04-02T09:52:59;71517.06;;;-145.80;26.33
6615;BME280;3343;42.896;23.912;2023-04-02T09:55:42;71573.19;;;-145.80;27.52
6615;BME280;3343;42.896;23.912;2023-04-02T09:58:14;71577.19;;;-145.80;27.82
6615;BME280;3343;42.896;23.912;2023-04-02T10:00:48;71573.19;;;-145.80;27.70
6615;BME280;3343;42.896;23.912;2023-04-02T10:03:22;71605.25;;;-145.80;28.09
6615;BME280;3343;42.896;23.912;2023-04-02T10:06:04;71607.28;;;-145.80;28.30
6615;BME280;3343;42.896;23.912;2023-04-02T10:08:32;71607.28;;;-145.80;28.78
6615;BME280;3343;42.896;23.912;2023-04-02T10:11:02;71557.16;;;-145.80;27.86
6615;BME280;3343;42.896;23.912;2023-04-02T10:13:33;71533.09;;;-145.80;27.96
6615;BME280;3343;42.896;23.912;2023-04-02T10:16:05;71511.03;;;-145.80;26.63
6615;BME280;3343;42.896;23.912;2023-04-02T10:18:40;71438.88;;;-145.80;27.01
6615;BME280;3343;42.896;23.912;2023-04-02T10:21:10;71390.78;;;-145.80;27.77
6615;BME280;3343;42.896;23.912;2023-04-02T10:23:40;71374.72;;;-145.80;27.34
6615;BME280;3343;42.896;23.912;2023-04-02T10:26:21;71390.78;;;-145.80;26.98
6615;BME280;3343;42.896;23.912;2023-04-02T10:29:06;71517.06;;;-145.80;27.58
6615;BME280;3343;42.896;23.912;2023-04-02T10:31:45;71579.19;;;-145.80;27.21
6615;BME280;3343;42.896;23.912;2023-04-02T10:34:20;71619.31;;;-145.80;28.74
6615;BME280;3343;42.896;23.912;2023-04-02T10:36:52;71601.25;;;-145.80;28.99
6615;BME280;3343;42.896;23.912;2023-04-02T10:39:24;71535.09;;;-145.80;28.42
6615;BME280;3343;42.896;23.912;2023-04-02T10:42:01;71497.00;;;-145.80;27.44
6615;BME280;3343;42.896;23.912;2023-04-02T10:44:42;71460.94;;;-145.80;27.39
6615;BME280;3343;42.896;23.912;2023-04-02T10:47:21;71497.00;;;-145.80;27.49
6615;BME280;3343;42.896;23.912;2023-04-02T10:50:03;71489.00;;;-145.80;27.33
6615;BME280;3343;42.896;23.912;2023-04-02T10:52:37;71482.97;;;-145.80;27.39
6615;BME280;3343;42.896;23.912;2023-04-02T10:55:14;71472.97;;;-145.80;26.24
6615;BME280;3343;42.896;23.912;2023-04-02T10:57:43;71507.03;;;-145.80;27.38
6615;BME280;3343;42.896;23.912;2023-04-02T11:00:20;71503.03;;;-145.80;26.88
6615;BME280;3343;42.896;23.912;2023-04-02T11:02:51;71503.03;;;-145.80;27.17
6615;BME280;3343;42.896;23.912;2023-04-02T11:05:25;71545.13;;;-145.80;27.22
6615;BME280;3343;42.896;23.912;2023-04-02T11:07:59;71507.03;;;-145.80;27.42
6615;BME280;3343;42.896;23.912;2023-04-02T11:10:31;71533.09;;;-145.80;27.23
6615;BME280;3343;42.896;23.912;2023-04-02T11:13:02;71521.06;;;-145.80;26.35
6615;BME280;3343;42.896;23.912;2023-04-02T11:15:33;71480.97;;;-145.80;26.91
6615;BME280;3343;42.896;23.912;2023-04-02T11:18:01;71466.94;;;-145.80;27.06
6615;BME280;3343;42.896;23.912;2023-04-02T11:20:42;71436.88;;;-145.80;26.30
6615;BME280;3343;42.896;23.912;2023-04-02T11:23:10;71561.16;;;-145.80;27.01
6615;BME280;3343;42.896;23.912;2023-04-02T11:25:39;71587.22;;;-145.80;27.51
6615;BME280;3343;42.896;23.912;2023-04-02T11:28:23;71533.09;;;-145.80;27.79
6615;BME280;3343;42.896;23.912;2023-04-02T11:30:53;71529.09;;;-145.80;26.20
6615;BME280;3343;42.896;23.912;2023-04-02T11:33:37;71553.16;;;-145.80;27.60
6615;BME280;3343;42.896;23.912;2023-04-02T11:39:46;71482.97;;;-145.80;26.86
6615;BME280;3343;42.896;23.912;2023-04-02T11:42:28;71480.97;;;-145.80;27.10
6615;BME280;3343;42.896;23.912;2023-04-02T11:44:58;71521.06;;;-145.80;27.39
6615;BME280;3343;42.896;23.912;2023-04-02T11:47:27;71533.09;;;-145.80;27.67
6615;BME280;3343;42.896;23.912;2023-04-02T11:50:02;71541.13;;;-145.80;27.34
6615;BME280;3343;42.896;23.912;2023-04-02T11:52:35;71553.16;;;-145.80;27.33
6615;BME280;3343;42.896;23.912;2023-04-02T11:55:24;71497.00;;;-145.80;27.34
6615;BME280;3343;42.896;23.912;2023-04-02T12:04:47;71523.06;;;-145.80;27.71
6615;BME280;3343;42.896;23.912;2023-04-02T12:08:13;71521.06;;;-145.80;27.47
6615;BME280;3343;42.896;23.912;2023-04-02T12:10:53;71501.03;;;-145.80;27.40
6615;BME280;3343;42.896;23.912;2023-04-02T12:13:52;71499.00;;;-145.80;27.73
6615;BME280;3343;42.896;23.912;2023-04-02T12:16:20;71487.00;;;-145.80;27.56
6615;BME280;3343;42.896;23.912;2023-04-02T12:18:50;71462.94;;;-145.80;27.26
6615;BME280;3343;42.896;23.912;2023-04-02T12:21:22;71480.97;;;-145.80;26.94
6615;BME280;3343;42.896;23.912;2023-04-02T12:23:51;71460.94;;;-145.80;26.66
6615;BME280;3343;42.896;23.912;2023-04-02T12:26:31;71398.78;;;-145.80;27.54
6615;BME280;3343;42.896;23.912;2023-04-02T12:29:29;71420.84;;;-145.80;27.75
6615;BME280;3343;42.896;23.912;2023-04-02T12:31:58;71474.97;;;-145.80;27.32
6615;BME280;3343;42.896;23.912;2023-04-02T12:34:27;71460.94;;;-145.80;27.08
6615;BME280;3343;42.896;23.912;2023-04-02T12:36:56;71456.91;;;-145.80;26.82
6615;BME280;3343;42.896;23.912;2023-04-02T12:39:27;71501.03;;;-145.80;27.79
6615;BME280;3343;42.896;23.912;2023-04-02T12:41:55;71499.00;;;-145.80;27.45
6615;BME280;3343;42.896;23.912;2023-04-02T12:44:25;71491.00;;;-145.80;27.13
6615;BME280;3343;42.896;23.912;2023-04-02T12:46:54;71444.91;;;-145.80;27.01
6615;BME280;3343;42.896;23.912;2023-04-02T12:49:29;71426.84;;;-145.80;26.56
6615;BME280;3343;42.896;23.912;2023-04-02T12:51:57;71386.75;;;-145.80;26.00
6615;BME280;3343;42.896;23.912;2023-04-02T12:54:35;71422.84;;;-145.80;26.49
6615;BME280;3343;42.896;23.912;2023-04-02T12:57:29;71408.81;;;-145.80;26.69
6615;BME280;3343;42.896;23.912;2023-04-02T12:59:57;71428.84;;;-145.80;26.28
6615;BME280;3343;42.896;23.912;2023-04-02T13:02:28;71424.84;;;-145.80;26.27
6615;BME280;3343;42.896;23.912;2023-04-02T13:04:57;71450.91;;;-145.80;25.81
6615;BME280;3343;42.896;23.912;2023-04-02T13:07:28;71444.91;;;-145.80;26.17
6615;BME280;3343;42.896;23.912;2023-04-02T13:09:58;71476.97;;;-145.80;26.47
6615;BME280;3343;42.896;23.912;2023-04-02T13:12:30;71436.88;;;-145.80;26.25
6615;BME280;3343;42.896;23.912;2023-04-02T13:15:00;71400.78;;;-145.80;25.21
6615;BME280;3343;42.896;23.912;2023-04-02T13:17:43;71350.69;;;-145.80;25.90
6615;BME280;3343;42.896;23.912;2023-04-02T13:20:28;71368.72;;;-145.80;25.21
6615;BME280;3343;42.896;23.912;2023-04-02T13:22:56;71376.75;;;-145.80;25.78
6615;BME280;3343;42.896;23.912;2023-04-02T13:25:27;71364.72;;;-145.80;25.16
6615;BME280;3343;42.896;23.912;2023-04-02T13:27:54;71398.78;;;-145.80;25.16
6615;BME280;3343;42.896;23.912;2023-04-02T13:30:23;71366.72;;;-145.80;25.77
6615;BME280;3343;42.896;23.912;2023-04-02T13:32:52;71308.59;;;-145.80;25.54
6615;BME280;3343;42.896;23.912;2023-04-02T13:35:19;71380.75;;;-145.80;24.74
6615;BME280;3343;42.896;23.912;2023-04-02T13:37:46;71404.81;;;-145.80;24.75